createdAt,value
2022-10-20T00:05:21.024Z,66.53
2022-10-20T00:08:48.746Z,66.16
2022-10-20T00:12:15.772Z,66.59
2022-10-20T00:15:49.870Z,66.55
2022-10-20T00:19:16.701Z,66.23
2022-10-20T00:22:46.539Z,66.24
2022-10-20T00:26:15.885Z,65.99
2022-10-20T00:29:42.840Z,66.44
2022-10-20T00:33:10.100Z,66.57
2022-10-20T00:36:38.638Z,66.68
2022-10-20T00:40:06.256Z,66.56
2022-10-20T00:43:47.702Z,66.58
2022-10-20T00:47:18.843Z,66.52
2022-10-20T00:50:50.515Z,66.63
2022-10-20T00:54:21.097Z,66.93
2022-10-20T00:57:51.380Z,66.67
2022-10-20T01:01:20.450Z,66.84
2022-10-20T01:04:47.476Z,66.74
2022-10-20T01:08:13.768Z,66.48
2022-10-20T01:11:51.312Z,66.48
2022-10-20T01:15:42.438Z,66.56
2022-10-20T01:23:45.177Z,66.91
2022-10-20T01:27:40.218Z,66.85
2022-10-20T01:31:20.125Z,66.67
2022-10-20T01:34:53.164Z,67.29
2022-10-20T01:38:30.293Z,66.90
2022-10-20T01:42:02.072Z,66.89
2022-10-20T01:45:32.570Z,66.98
2022-10-20T01:49:00.884Z,66.94
2022-10-20T01:52:29.026Z,67.03
2022-10-20T01:55:59.146Z,67.02
2022-10-20T01:59:43.719Z,66.99
2022-10-20T02:03:34.191Z,66.72
2022-10-20T02:07:05.986Z,66.84
2022-10-20T02:10:42.466Z,66.69
2022-10-20T02:14:12.530Z,66.89
2022-10-20T02:17:43.435Z,66.95
2022-10-20T02:21:10.323Z,67.05
2022-10-20T02:24:39.369Z,66.98
2022-10-20T02:28:10.348Z,66.74
2022-10-20T02:31:36.897Z,67.05
2022-10-20T02:35:06.779Z,66.81
2022-10-20T02:38:33.869Z,67.00
2022-10-20T02:42:00.341Z,67.03
2022-10-20T02:45:26.850Z,67.04
2022-10-20T02:48:53.359Z,67.24
2022-10-20T02:52:20.263Z,67.19
2022-10-20T02:55:47.143Z,67.24
2022-10-20T02:59:17.050Z,67.19
2022-10-20T03:02:43.671Z,67.25
2022-10-20T03:06:15.878Z,67.31
2022-10-20T03:09:44.374Z,67.49
2022-10-20T03:13:11.427Z,67.39
2022-10-20T03:16:37.786Z,67.31
2022-10-20T03:20:05.278Z,67.11
2022-10-20T03:23:31.617Z,67.17
2022-10-20T03:26:58.260Z,67.33
2022-10-20T03:30:25.251Z,67.56
2022-10-20T03:33:51.794Z,67.27
2022-10-20T03:37:18.416Z,67.32
2022-10-20T03:40:45.123Z,67.14
2022-10-20T03:44:12.874Z,67.60
2022-10-20T03:47:39.717Z,67.67
2022-10-20T03:51:07.699Z,67.36
2022-10-20T03:54:36.789Z,67.35
2022-10-20T03:58:03.643Z,67.29
2022-10-20T04:01:34.035Z,67.42
2022-10-20T04:05:00.589Z,67.44
2022-10-20T04:08:27.247Z,67.50
2022-10-20T04:11:53.889Z,67.65
2022-10-20T04:15:20.677Z,67.69
2022-10-20T04:18:47.651Z,67.97
2022-10-20T04:22:14.911Z,67.65
2022-10-20T04:25:47.797Z,67.78
2022-10-20T04:29:15.888Z,67.66
2022-10-20T04:32:42.942Z,67.61
2022-10-20T04:36:13.572Z,67.55
2022-10-20T04:39:39.974Z,67.51
2022-10-20T04:43:06.861Z,67.51
2022-10-20T04:46:33.869Z,67.66
2022-10-20T04:50:00.109Z,67.49
2022-10-20T04:53:26.631Z,67.57
2022-10-20T04:56:53.068Z,67.52
2022-10-20T05:00:20.222Z,67.54
2022-10-20T05:03:47.348Z,67.53
2022-10-20T05:07:13.938Z,67.62
2022-10-20T05:10:41.007Z,67.42
2022-10-20T05:14:07.905Z,67.46
2022-10-20T05:17:35.034Z,67.40
2022-10-20T05:21:08.928Z,67.46
2022-10-20T05:24:36.166Z,67.61
2022-10-20T05:28:03.084Z,67.69
2022-10-20T05:31:29.773Z,67.94
2022-10-20T05:34:56.511Z,67.88
2022-10-20T05:38:23.053Z,68.00
2022-10-20T05:41:49.811Z,68.09
2022-10-20T05:45:16.983Z,68.08
2022-10-20T05:48:43.597Z,67.91
2022-10-20T05:52:10.353Z,67.54
2022-10-20T05:55:37.410Z,67.65
2022-10-20T05:59:03.997Z,67.70
2022-10-20T06:02:30.573Z,67.86
2022-10-20T06:06:01.554Z,68.01
2022-10-20T06:09:28.328Z,68.15
2022-10-20T06:12:55.177Z,68.17
2022-10-20T06:16:23.627Z,68.29
2022-10-20T06:19:50.138Z,68.34
2022-10-20T06:23:16.962Z,68.33
2022-10-20T06:26:44.614Z,68.30
2022-10-20T06:30:13.984Z,68.37
2022-10-20T06:33:40.960Z,68.40
2022-10-20T06:37:07.576Z,68.67
2022-10-20T06:40:36.622Z,68.55
2022-10-20T06:44:03.719Z,68.90
2022-10-20T06:47:32.794Z,69.03
2022-10-20T06:51:02.070Z,68.93
2022-10-20T06:54:28.729Z,69.13
2022-10-20T06:57:58.560Z,69.22
2022-10-20T07:01:27.501Z,69.04
2022-10-20T07:04:54.373Z,68.99
2022-10-20T07:08:21.106Z,68.89
2022-10-20T07:11:51.949Z,69.05
2022-10-20T07:15:19.728Z,69.30
2022-10-20T07:18:47.909Z,69.15
2022-10-20T07:22:15.577Z,69.38
2022-10-20T07:25:42.308Z,69.76
2022-10-20T07:29:09.313Z,69.70
2022-10-20T07:32:36.059Z,69.98
2022-10-20T07:36:03.310Z,69.80
2022-10-20T07:39:30.704Z,69.78
2022-10-20T07:42:57.793Z,70.10
2022-10-20T07:46:25.725Z,70.29
2022-10-20T07:49:53.395Z,70.31
2022-10-20T07:53:21.162Z,70.36
2022-10-20T07:56:48.039Z,70.85
2022-10-20T08:00:16.310Z,70.80
2022-10-20T08:03:43.158Z,70.70
2022-10-20T08:07:09.837Z,70.90
2022-10-20T08:10:36.690Z,70.92
2022-10-20T08:14:03.947Z,71.15
2022-10-20T08:17:33.610Z,70.88
2022-10-20T08:21:12.631Z,70.98
2022-10-20T08:24:44.237Z,70.86
2022-10-20T08:28:12.169Z,70.92
2022-10-20T08:31:39.019Z,70.97
2022-10-20T08:35:06.305Z,70.79
2022-10-20T08:38:33.532Z,70.94
2022-10-20T08:42:09.553Z,70.94
2022-10-20T08:45:38.528Z,70.90
2022-10-20T08:49:08.818Z,70.84
2022-10-20T08:52:36.444Z,70.96
2022-10-20T08:56:03.662Z,71.21
2022-10-20T08:59:39.264Z,71.00
2022-10-20T09:03:19.261Z,70.76
2022-10-20T09:06:49.998Z,70.83
2022-10-20T09:10:25.958Z,70.85
2022-10-20T09:13:53.034Z,70.85
2022-10-20T09:17:20.332Z,70.75
2022-10-20T09:20:52.656Z,70.41
2022-10-20T09:24:31.378Z,69.92
2022-10-20T09:27:58.489Z,69.97
2022-10-20T09:31:33.507Z,69.68
2022-10-20T09:35:19.938Z,69.56
2022-10-20T09:38:49.133Z,69.46
2022-10-20T09:42:20.859Z,69.32
2022-10-20T09:45:54.907Z,68.91
2022-10-20T09:49:30.270Z,68.92
2022-10-20T09:53:00.252Z,68.51
2022-10-20T09:56:30.174Z,68.39
2022-10-20T10:00:01.381Z,68.44
2022-10-20T10:03:45.293Z,68.15
2022-10-20T10:07:33.366Z,67.94
2022-10-20T10:11:15.548Z,67.83
2022-10-20T10:14:55.429Z,67.76
2022-10-20T10:18:25.763Z,67.44
2022-10-20T10:21:56.818Z,67.35
2022-10-20T10:25:27.868Z,67.12
2022-10-20T10:29:00.910Z,67.14
2022-10-20T10:32:30.151Z,67.09
2022-10-20T10:35:57.526Z,66.90
2022-10-20T10:39:25.234Z,66.47
2022-10-20T10:43:13.581Z,66.35
2022-10-20T10:50:32.893Z,66.14
2022-10-20T10:54:12.369Z,65.99
2022-10-20T10:57:53.422Z,65.84
2022-10-20T11:01:59.226Z,65.59
2022-10-20T11:05:56.136Z,65.50
2022-10-20T11:09:33.286Z,65.31
2022-10-20T11:13:26.164Z,65.22
2022-10-20T11:17:07.214Z,65.38
2022-10-20T11:20:40.059Z,65.01
2022-10-20T11:24:25.435Z,64.62
2022-10-20T11:27:52.647Z,64.77
2022-10-20T11:31:27.928Z,64.37
2022-10-20T11:35:04.767Z,63.83
2022-10-20T11:38:37.727Z,63.96
2022-10-20T11:42:14.229Z,63.78
2022-10-20T11:45:49.322Z,63.57
2022-10-20T11:49:19.697Z,63.09
2022-10-20T11:53:06.274Z,62.60
2022-10-20T11:56:57.835Z,62.61
2022-10-20T12:05:06.403Z,62.46
2022-10-20T12:08:54.207Z,62.05
2022-10-20T12:12:27.195Z,61.90
2022-10-20T12:15:54.958Z,61.77
2022-10-20T12:19:24.003Z,61.67
2022-10-20T12:22:52.651Z,61.20
2022-10-20T12:27:04.903Z,60.99
2022-10-20T12:30:46.089Z,60.78
2022-10-20T12:34:25.735Z,60.56
2022-10-20T12:38:01.803Z,60.71
2022-10-20T12:41:34.096Z,60.46
2022-10-20T12:45:07.593Z,60.04
2022-10-20T12:48:42.419Z,59.80
2022-10-20T12:52:18.620Z,59.98
2022-10-20T12:55:48.426Z,59.68
2022-10-20T12:59:39.453Z,59.55
2022-10-20T13:03:53.096Z,59.28
2022-10-20T13:07:58.732Z,59.14
2022-10-20T13:11:46.364Z,59.06
2022-10-20T13:15:19.239Z,58.78
2022-10-20T13:18:50.913Z,58.39
2022-10-20T13:22:38.181Z,58.16
2022-10-20T13:26:17.231Z,57.96
2022-10-20T13:29:44.611Z,57.73
2022-10-20T13:37:22.578Z,57.63
2022-10-20T13:41:02.612Z,57.66
2022-10-20T13:44:37.964Z,57.37
2022-10-20T13:48:16.683Z,57.07
2022-10-20T13:51:48.927Z,57.08
2022-10-20T13:55:22.652Z,56.96
2022-10-20T13:59:03.096Z,56.80
2022-10-20T14:02:32.637Z,56.75
2022-10-20T14:06:00.580Z,56.83
2022-10-20T14:09:28.159Z,56.64
2022-10-20T14:12:56.978Z,56.95
2022-10-20T14:16:29.553Z,56.83
2022-10-20T14:20:19.359Z,56.91
2022-10-20T14:23:51.103Z,57.08
2022-10-20T14:27:23.013Z,57.15
2022-10-20T14:30:51.047Z,56.99
2022-10-20T14:34:28.444Z,57.15
2022-10-20T14:37:59.822Z,57.15
2022-10-20T14:41:32.476Z,57.34
2022-10-20T14:45:04.383Z,57.27
2022-10-20T14:48:38.586Z,57.45
2022-10-20T14:52:11.146Z,57.54
2022-10-20T14:55:43.025Z,57.33
2022-10-20T14:59:19.179Z,57.43
2022-10-20T15:02:56.385Z,57.40
2022-10-20T15:06:23.277Z,57.53
2022-10-20T15:09:51.991Z,57.61
2022-10-20T15:13:31.007Z,57.56
2022-10-20T15:16:57.947Z,57.79
2022-10-20T15:20:42.251Z,57.83
2022-10-20T15:24:09.033Z,57.95
2022-10-20T15:27:43.682Z,57.96
2022-10-20T15:31:22.003Z,58.04
2022-10-20T15:34:48.863Z,58.00
2022-10-20T15:38:16.234Z,58.31
2022-10-20T15:41:43.351Z,58.28
2022-10-20T15:45:18.810Z,58.23
2022-10-20T15:48:46.513Z,58.42
2022-10-20T15:52:14.785Z,58.56
2022-10-20T15:55:43.566Z,58.59
2022-10-20T15:59:10.719Z,58.30
2022-10-20T16:02:37.834Z,58.70
2022-10-20T16:06:06.424Z,58.73
2022-10-20T16:09:33.559Z,58.87
2022-10-20T16:13:01.075Z,59.16
2022-10-20T16:16:28.267Z,59.23
2022-10-20T16:19:56.115Z,59.51
2022-10-20T16:23:23.382Z,59.64
2022-10-20T16:26:50.623Z,59.79
2022-10-20T16:30:17.805Z,59.92
2022-10-20T16:33:45.348Z,59.76
2022-10-20T16:37:12.461Z,59.81
2022-10-20T16:40:40.401Z,59.59
2022-10-20T16:44:11.030Z,59.50
2022-10-20T16:47:39.679Z,59.89
2022-10-20T16:51:10.461Z,59.84
2022-10-20T16:58:08.226Z,60.35
2022-10-20T17:01:39.906Z,60.40
2022-10-20T17:05:09.444Z,60.63
2022-10-20T17:08:37.559Z,60.51
2022-10-20T17:12:04.660Z,60.85
2022-10-20T17:15:32.345Z,60.47
2022-10-20T17:19:01.230Z,61.02
2022-10-20T17:22:28.375Z,61.15
2022-10-20T17:26:04.043Z,61.27
2022-10-20T17:29:31.174Z,61.22
2022-10-20T17:32:57.797Z,61.15
2022-10-20T17:36:27.531Z,61.43
2022-10-20T17:39:54.882Z,61.67
2022-10-20T17:43:22.076Z,61.55
2022-10-20T17:46:49.268Z,61.66
2022-10-20T17:50:18.210Z,61.71
2022-10-20T17:53:48.681Z,61.77
2022-10-20T17:57:15.914Z,61.81
2022-10-20T18:00:56.121Z,61.79
2022-10-20T18:04:24.331Z,61.71
2022-10-20T18:07:52.821Z,61.84
2022-10-20T18:11:22.727Z,62.00
2022-10-20T18:14:49.801Z,62.07
2022-10-20T18:18:17.014Z,62.16
2022-10-20T18:21:45.804Z,62.29
2022-10-20T18:25:15.018Z,62.28
2022-10-20T18:28:45.845Z,62.19
2022-10-20T18:32:16.914Z,62.39
2022-10-20T18:35:49.743Z,62.46
2022-10-20T18:39:18.049Z,62.72
2022-10-20T18:42:52.161Z,62.79
2022-10-20T18:46:23.524Z,63.11
2022-10-20T18:49:54.643Z,63.15
2022-10-20T18:53:25.528Z,63.26
2022-10-20T18:56:53.696Z,63.34
2022-10-20T19:00:21.441Z,63.46
2022-10-20T19:03:51.793Z,63.54
2022-10-20T19:07:19.265Z,63.28
2022-10-20T19:10:46.773Z,63.40
2022-10-20T19:14:15.577Z,63.42
2022-10-20T19:17:45.204Z,63.56
2022-10-20T19:21:13.118Z,63.31
2022-10-20T19:24:42.038Z,63.53
2022-10-20T19:28:13.847Z,63.49
2022-10-20T19:31:45.317Z,63.60
2022-10-20T19:35:13.931Z,63.72
2022-10-20T19:38:43.600Z,63.71
2022-10-20T19:42:18.266Z,63.83
2022-10-20T19:45:49.893Z,63.72
2022-10-20T19:49:19.799Z,63.81
2022-10-20T19:52:48.257Z,64.01
2022-10-20T19:56:19.590Z,64.05
2022-10-20T19:59:50.362Z,64.18
2022-10-20T20:03:24.440Z,64.36
2022-10-20T20:06:53.196Z,64.53
2022-10-20T20:10:22.885Z,64.60
2022-10-20T20:13:51.426Z,64.81
2022-10-20T20:17:20.260Z,64.74
2022-10-20T20:20:50.253Z,64.84
2022-10-20T20:24:18.090Z,64.81
2022-10-20T20:27:45.602Z,64.83
2022-10-20T20:31:14.129Z,64.80
2022-10-20T20:34:42.074Z,65.05
2022-10-20T20:38:09.706Z,64.96
2022-10-20T20:41:38.397Z,65.12
2022-10-20T20:45:08.675Z,65.09
2022-10-20T20:48:38.806Z,65.05
2022-10-20T20:52:07.137Z,65.05
2022-10-20T20:55:41.966Z,65.16
2022-10-20T20:59:09.523Z,65.27
2022-10-20T21:02:43.549Z,65.35
2022-10-20T21:07:01.139Z,65.38
2022-10-20T21:10:36.662Z,65.80
2022-10-20T21:18:25.049Z,65.95
2022-10-20T21:22:15.456Z,65.90
2022-10-20T21:25:51.248Z,65.95
2022-10-20T21:29:27.318Z,65.89
2022-10-20T21:32:57.903Z,65.82
2022-10-20T21:36:33.276Z,65.85
2022-10-20T21:40:01.204Z,65.88
2022-10-20T21:43:30.173Z,65.80
2022-10-20T21:46:58.121Z,65.85
2022-10-20T21:50:25.804Z,65.76
2022-10-20T21:53:56.140Z,65.84
2022-10-20T21:57:23.892Z,65.93
2022-10-20T22:00:54.702Z,66.18
2022-10-20T22:04:25.503Z,66.07
2022-10-20T22:07:54.021Z,66.03
2022-10-20T22:11:26.344Z,66.04
2022-10-20T22:14:54.442Z,66.41
2022-10-20T22:18:26.890Z,66.41
2022-10-20T22:25:26.436Z,66.44
2022-10-20T22:28:56.447Z,66.61
2022-10-20T22:32:24.291Z,66.66
2022-10-20T22:35:54.090Z,66.76
2022-10-20T22:39:22.376Z,66.68
2022-10-20T22:42:50.966Z,66.64
2022-10-20T22:46:20.993Z,66.59
2022-10-20T22:49:51.613Z,66.71
2022-10-20T22:53:20.032Z,66.67
2022-10-20T22:56:47.879Z,66.38
2022-10-20T23:00:18.917Z,66.67
2022-10-20T23:03:47.920Z,66.77
2022-10-20T23:07:22.782Z,66.72
2022-10-20T23:11:02.843Z,66.51
2022-10-20T23:14:34.205Z,66.72
2022-10-20T23:18:02.311Z,66.59
2022-10-20T23:21:31.292Z,66.90
2022-10-20T23:25:04.523Z,67.03
2022-10-20T23:28:39.352Z,66.79
2022-10-20T23:32:08.425Z,66.90
2022-10-20T23:35:38.328Z,67.05
2022-10-20T23:39:07.464Z,67.22
2022-10-20T23:42:34.566Z,67.38
2022-10-20T23:46:03.827Z,67.58
2022-10-20T23:49:31.465Z,67.32
2022-10-20T23:52:59.211Z,67.29
2022-10-20T23:56:26.486Z,67.26
2022-10-20T23:59:53.553Z,67.15
